createdAt,value
2023-04-02T00:00:59.583Z,93.21
2023-04-02T00:01:59.599Z,92.90
2023-04-02T00:02:59.563Z,93.01
2023-04-02T00:03:59.756Z,92.90
2023-04-02T00:04:59.499Z,93.31
2023-04-02T00:05:59.485Z,92.90
2023-04-02T00:06:59.478Z,92.80
2023-04-02T00:07:59.490Z,92.90
2023-04-02T00:08:59.469Z,93.52
2023-04-02T00:09:59.477Z,93.21
2023-04-02T00:10:59.463Z,92.90
2023-04-02T00:11:59.495Z,92.74
2023-04-02T00:12:59.430Z,93.11
2023-04-02T00:13:59.443Z,93.21
2023-04-02T00:14:59.387Z,92.80
2023-04-02T00:15:59.391Z,93.21
2023-04-02T00:16:59.365Z,93.01
2023-04-02T00:17:59.394Z,94.03
2023-04-02T00:18:59.345Z,93.93
2023-04-02T00:19:59.389Z,93.01
2023-04-02T00:20:59.361Z,93.01
2023-04-02T00:21:59.333Z,92.90
2023-04-02T00:22:59.297Z,92.90
2023-04-02T00:23:59.294Z,92.90
2023-04-02T00:24:59.311Z,92.80
2023-04-02T00:25:59.325Z,92.80
2023-04-02T00:26:59.254Z,92.90
2023-04-02T00:27:59.241Z,92.90
2023-04-02T00:28:59.254Z,92.90
2023-04-02T00:29:59.251Z,93.01
2023-04-02T00:30:59.225Z,92.80
2023-04-02T00:31:59.331Z,92.69
2023-04-02T00:32:59.234Z,92.80
2023-04-02T00:33:59.175Z,92.80
2023-04-02T00:34:59.178Z,92.90
2023-04-02T00:35:59.202Z,93.01
2023-04-02T00:36:59.154Z,92.59
2023-04-02T00:37:59.180Z,92.76
2023-04-02T00:38:59.119Z,92.90
2023-04-02T00:39:59.135Z,93.01
2023-04-02T00:40:59.114Z,92.90
2023-04-02T00:41:59.119Z,93.11
2023-04-02T00:42:59.101Z,93.11
2023-04-02T00:43:59.127Z,93.01
2023-04-02T00:44:59.083Z,93.01
2023-04-02T00:45:59.099Z,92.18
2023-04-02T00:46:59.062Z,92.80
2023-04-02T00:47:59.061Z,93.01
2023-04-02T00:48:59.016Z,92.80
2023-04-02T00:49:59.026Z,92.80
2023-04-02T00:50:59.009Z,91.66
2023-04-02T00:51:58.987Z,92.18
2023-04-02T00:52:59.003Z,92.80
2023-04-02T00:53:58.968Z,91.77
2023-04-02T00:54:58.969Z,92.08
2023-04-02T00:55:58.976Z,92.18
2023-04-02T00:56:59.003Z,92.18
2023-04-02T00:57:58.944Z,92.08
2023-04-02T00:58:58.910Z,92.38
2023-04-02T00:59:58.903Z,91.97
2023-04-02T01:00:58.951Z,92.08
2023-04-02T01:01:58.898Z,92.18
2023-04-02T01:02:58.960Z,92.08
2023-04-02T01:03:58.875Z,91.66
2023-04-02T01:04:58.844Z,92.18
2023-04-02T01:05:58.816Z,91.97
2023-04-02T01:06:58.806Z,92.18
2023-04-02T01:07:58.825Z,92.69
2023-04-02T01:08:58.793Z,91.77
2023-04-02T01:09:58.814Z,91.66
2023-04-02T01:10:58.773Z,91.97
2023-04-02T01:11:58.755Z,91.77
2023-04-02T01:12:58.741Z,91.77
2023-04-02T01:13:58.765Z,91.15
2023-04-02T01:14:58.746Z,91.46
2023-04-02T01:15:58.781Z,91.77
2023-04-02T01:16:58.714Z,91.87
2023-04-02T01:17:58.761Z,91.83
2023-04-02T01:18:58.670Z,92.03
2023-04-02T01:19:58.762Z,91.25
2023-04-02T01:20:58.649Z,91.56
2023-04-02T01:21:58.643Z,91.21
2023-04-02T01:22:58.643Z,92.69
2023-04-02T01:23:58.618Z,92.08
2023-04-02T01:24:58.663Z,91.77
2023-04-02T01:25:58.688Z,91.62
2023-04-02T01:26:58.627Z,91.77
2023-04-02T01:27:58.595Z,91.77
2023-04-02T01:28:58.601Z,91.87
2023-04-02T01:29:58.551Z,91.66
2023-04-02T01:30:58.563Z,91.66
2023-04-02T01:31:58.553Z,91.66
2023-04-02T01:32:58.606Z,91.46
2023-04-02T01:33:58.526Z,90.94
2023-04-02T01:34:58.529Z,90.94
2023-04-02T01:35:58.539Z,91.56
2023-04-02T01:36:58.472Z,91.87
2023-04-02T01:37:58.487Z,91.66
2023-04-02T01:38:58.467Z,91.97
2023-04-02T01:39:58.434Z,91.66
2023-04-02T01:40:58.422Z,92.08
2023-04-02T01:41:58.439Z,92.08
2023-04-02T01:42:58.420Z,92.18
2023-04-02T01:43:58.401Z,92.08
2023-04-02T01:44:58.402Z,91.56
2023-04-02T01:45:58.365Z,92.08
2023-04-02T01:46:58.406Z,91.66
2023-04-02T01:47:58.406Z,91.56
2023-04-02T01:48:58.374Z,92.18
2023-04-02T01:49:58.387Z,91.66
2023-04-02T01:50:58.327Z,92.08
2023-04-02T01:51:58.302Z,92.08
2023-04-02T01:52:58.288Z,91.97
2023-04-02T01:53:58.281Z,93.11
2023-04-02T01:54:58.368Z,92.29
2023-04-02T01:55:58.273Z,92.18
2023-04-02T01:56:58.313Z,91.77
2023-04-02T01:57:58.282Z,91.87
2023-04-02T01:58:58.219Z,92.08
2023-04-02T01:59:58.210Z,92.29
2023-04-02T02:00:58.237Z,92.18
2023-04-02T02:01:58.234Z,92.08
2023-04-02T02:02:58.204Z,91.77
2023-04-02T02:03:58.184Z,91.97
2023-04-02T02:04:58.165Z,92.80
2023-04-02T02:05:58.142Z,92.80
2023-04-02T02:06:58.152Z,92.69
2023-04-02T02:07:58.133Z,92.69
2023-04-02T02:08:58.144Z,91.97
2023-04-02T02:09:58.121Z,92.22
2023-04-02T02:10:58.082Z,92.94
2023-04-02T02:11:58.073Z,92.90
2023-04-02T02:12:58.108Z,92.90
2023-04-02T02:13:58.093Z,92.80
2023-04-02T02:14:58.054Z,92.33
2023-04-02T02:15:58.062Z,93.15
2023-04-02T02:16:58.037Z,93.21
2023-04-02T02:17:58.041Z,93.01
2023-04-02T02:18:58.064Z,92.90
2023-04-02T02:19:58.029Z,92.69
2023-04-02T02:20:57.992Z,93.31
2023-04-02T02:21:57.964Z,93.01
2023-04-02T02:22:57.964Z,92.22
2023-04-02T02:23:57.954Z,92.69
2023-04-02T02:24:57.977Z,91.97
2023-04-02T02:25:57.959Z,92.18
2023-04-02T02:26:57.931Z,92.02
2023-04-02T02:27:57.903Z,92.59
2023-04-02T02:28:57.905Z,92.80
2023-04-02T02:29:57.897Z,92.08
2023-04-02T02:30:57.910Z,92.49
2023-04-02T02:31:57.928Z,92.69
2023-04-02T02:32:57.964Z,93.01
2023-04-02T02:33:58.184Z,91.66
2023-04-02T02:34:57.826Z,92.90
2023-04-02T02:35:57.865Z,92.80
2023-04-02T02:36:57.855Z,92.69
2023-04-02T02:37:57.844Z,92.63
2023-04-02T02:38:57.785Z,93.11
2023-04-02T02:39:57.765Z,93.25
2023-04-02T02:40:57.768Z,92.02
2023-04-02T02:41:57.783Z,92.84
2023-04-02T02:42:57.730Z,92.69
2023-04-02T02:43:57.753Z,93.25
2023-04-02T02:44:57.713Z,92.94
2023-04-02T02:45:57.722Z,92.84
2023-04-02T02:46:57.711Z,93.05
2023-04-02T02:47:57.717Z,93.25
2023-04-02T02:48:57.663Z,93.35
2023-04-02T02:49:59.004Z,92.84
2023-04-02T02:50:57.660Z,93.35
2023-04-02T02:51:57.633Z,93.15
2023-04-02T02:52:57.678Z,92.94
2023-04-02T02:53:57.608Z,93.05
2023-04-02T02:54:57.598Z,93.25
2023-04-02T02:55:57.649Z,92.63
2023-04-02T02:56:57.662Z,93.15
2023-04-02T02:57:57.572Z,93.25
2023-04-02T02:58:57.579Z,92.74
2023-04-02T02:59:57.577Z,93.56
2023-04-02T03:00:57.607Z,93.25
2023-04-02T03:01:57.521Z,93.25
2023-04-02T03:02:57.621Z,92.84
2023-04-02T03:03:57.672Z,92.94
2023-04-02T03:04:57.517Z,93.98
2023-04-02T03:05:57.514Z,93.87
2023-04-02T03:06:57.503Z,93.87
2023-04-02T03:07:57.458Z,93.87
2023-04-02T03:08:57.463Z,93.77
2023-04-02T03:09:57.443Z,93.98
2023-04-02T03:10:57.454Z,93.98
2023-04-02T03:11:57.406Z,93.98
2023-04-02T03:12:57.495Z,93.77
2023-04-02T03:13:57.379Z,93.05
2023-04-02T03:14:57.381Z,93.19
2023-04-02T03:15:57.407Z,94.28
2023-04-02T03:16:57.351Z,93.25
2023-04-02T03:17:57.387Z,93.98
2023-04-02T03:18:57.373Z,94.08
2023-04-02T03:19:57.314Z,93.77
2023-04-02T03:20:57.319Z,94.70
2023-04-02T03:21:57.292Z,93.87
2023-04-02T03:22:57.302Z,93.81
2023-04-02T03:23:57.267Z,93.66
2023-04-02T03:24:57.282Z,93.87
2023-04-02T03:25:57.262Z,93.77
2023-04-02T03:26:57.252Z,93.71
2023-04-02T03:27:57.267Z,93.87
2023-04-02T03:28:57.212Z,93.91
2023-04-02T03:29:57.207Z,93.40
2023-04-02T03:30:57.273Z,93.81
2023-04-02T03:31:57.210Z,93.81
2023-04-02T03:32:57.235Z,94.74
2023-04-02T03:33:57.194Z,93.71
2023-04-02T03:34:57.148Z,93.87
2023-04-02T03:35:57.169Z,93.56
2023-04-02T03:36:57.160Z,93.50
2023-04-02T03:37:57.127Z,94.74
2023-04-02T03:38:57.101Z,94.59
2023-04-02T03:39:57.135Z,94.64
2023-04-02T03:40:57.108Z,94.64
2023-04-02T03:41:57.089Z,94.49
2023-04-02T03:42:57.101Z,94.12
2023-04-02T03:43:57.064Z,93.50
2023-04-02T03:44:57.076Z,93.60
2023-04-02T03:45:57.031Z,94.53
2023-04-02T03:46:57.014Z,93.91
2023-04-02T03:47:57.039Z,94.12
2023-04-02T03:48:57.064Z,93.81
2023-04-02T03:49:56.998Z,93.81
2023-04-02T03:50:56.972Z,94.12
2023-04-02T03:51:56.979Z,94.70
2023-04-02T03:52:56.974Z,94.53
2023-04-02T03:53:56.940Z,94.12
2023-04-02T03:54:56.937Z,93.81
2023-04-02T03:55:56.969Z,93.50
2023-04-02T03:56:56.974Z,93.71
2023-04-02T03:57:56.958Z,94.02
2023-04-02T03:58:56.901Z,94.74
2023-04-02T03:59:56.875Z,94.59
2023-04-02T04:00:56.876Z,93.91
2023-04-02T04:01:56.918Z,93.60
2023-04-02T04:02:56.878Z,93.81
2023-04-02T04:03:56.893Z,94.64
2023-04-02T04:04:56.810Z,94.38
2023-04-02T04:05:56.827Z,94.84
2023-04-02T04:06:56.793Z,94.43
2023-04-02T04:07:56.844Z,94.02
2023-04-02T04:08:56.764Z,94.64
2023-04-02T04:09:57.210Z,94.74
2023-04-02T04:10:56.776Z,94.64
2023-04-02T04:11:56.742Z,94.02
2023-04-02T04:12:56.739Z,94.43
2023-04-02T04:13:56.798Z,94.84
2023-04-02T04:14:56.698Z,94.64
2023-04-02T04:15:56.711Z,94.74
2023-04-02T04:16:56.778Z,94.64
2023-04-02T04:17:56.757Z,93.81
2023-04-02T04:18:56.651Z,94.74
2023-04-02T04:19:56.671Z,94.64
2023-04-02T04:20:56.928Z,94.43
2023-04-02T04:21:56.621Z,94.43
2023-04-02T04:22:56.624Z,94.43
2023-04-02T04:23:56.630Z,94.53
2023-04-02T04:24:56.586Z,94.32
2023-04-02T04:25:56.750Z,94.64
2023-04-02T04:26:56.587Z,94.32
2023-04-02T04:27:56.564Z,94.84
2023-04-02T04:28:56.588Z,94.43
2023-04-02T04:29:56.588Z,94.99
2023-04-02T04:30:56.519Z,94.74
2023-04-02T04:31:56.596Z,94.99
2023-04-02T04:32:56.548Z,94.99
2023-04-02T04:33:56.505Z,94.68
2023-04-02T04:34:56.493Z,94.64
2023-04-02T04:35:56.505Z,95.09
2023-04-02T04:36:56.477Z,94.89
2023-04-02T04:37:56.488Z,94.89
2023-04-02T04:38:56.430Z,95.09
2023-04-02T04:39:56.436Z,94.99
2023-04-02T04:40:56.441Z,94.95
2023-04-02T04:41:56.397Z,94.89
2023-04-02T04:42:56.410Z,94.89
2023-04-02T04:43:56.429Z,94.68
2023-04-02T04:44:56.389Z,94.43
2023-04-02T04:45:56.420Z,94.27
2023-04-02T04:46:56.372Z,94.23
2023-04-02T04:47:56.400Z,94.89
2023-04-02T04:48:56.346Z,94.37
2023-04-02T04:49:56.367Z,94.68
2023-04-02T04:50:56.344Z,94.89
2023-04-02T04:51:56.302Z,95.09
2023-04-02T04:52:56.279Z,94.68
2023-04-02T04:53:56.263Z,94.78
2023-04-02T04:54:56.254Z,94.57
2023-04-02T04:55:58.236Z,94.68
2023-04-02T04:56:57.296Z,94.78
2023-04-02T04:57:56.221Z,94.68
2023-04-02T04:58:56.210Z,94.89
2023-04-02T04:59:56.199Z,94.89
2023-04-02T05:00:56.203Z,94.68
2023-04-02T05:01:56.342Z,94.57
2023-04-02T05:02:56.193Z,94.78
2023-04-02T05:03:56.163Z,94.99
2023-04-02T05:04:56.204Z,94.89
2023-04-02T05:05:56.132Z,94.99
2023-04-02T05:06:56.132Z,94.99
2023-04-02T05:07:57.027Z,94.47
2023-04-02T05:08:56.113Z,94.78
2023-04-02T05:09:56.084Z,94.57
2023-04-02T05:10:56.092Z,94.57
2023-04-02T05:11:56.073Z,95.09
2023-04-02T05:12:56.050Z,95.20
2023-04-02T05:13:56.094Z,94.99
2023-04-02T05:14:56.073Z,94.47
2023-04-02T05:15:56.110Z,94.37
2023-04-02T05:16:56.024Z,94.47
2023-04-02T05:17:56.019Z,94.57
2023-04-02T05:18:56.032Z,94.78
2023-04-02T05:19:56.013Z,94.78
2023-04-02T05:20:55.959Z,94.37
2023-04-02T05:21:55.952Z,94.78
2023-04-02T05:22:55.971Z,93.85
2023-04-02T05:23:55.963Z,93.75
2023-04-02T05:24:55.932Z,93.96
2023-04-02T05:25:55.968Z,93.96
2023-04-02T05:26:55.892Z,94.06
2023-04-02T05:27:55.885Z,93.85
2023-04-02T05:28:55.881Z,93.54
2023-04-02T05:29:55.895Z,93.90
2023-04-02T05:30:55.888Z,94.68
2023-04-02T05:31:55.876Z,94.68
2023-04-02T05:32:55.949Z,94.78
2023-04-02T05:33:55.848Z,94.72
2023-04-02T05:34:55.809Z,94.10
2023-04-02T05:35:55.820Z,94.00
2023-04-02T05:36:55.809Z,94.00
2023-04-02T05:37:55.831Z,93.69
2023-04-02T05:38:55.786Z,94.00
2023-04-02T05:39:55.785Z,94.72
2023-04-02T05:40:55.764Z,94.42
2023-04-02T05:41:55.752Z,94.72
2023-04-02T05:42:55.798Z,94.62
2023-04-02T05:43:55.711Z,94.17
2023-04-02T05:44:55.699Z,94.72
2023-04-02T05:45:55.696Z,93.96
2023-04-02T05:46:55.785Z,93.85
2023-04-02T05:47:55.705Z,93.75
2023-04-02T05:48:55.749Z,94.78
2023-04-02T05:49:55.643Z,94.68
2023-04-02T05:50:55.633Z,93.85
2023-04-02T05:51:57.448Z,94.27
2023-04-02T05:52:55.611Z,93.96
2023-04-02T05:53:55.640Z,94.17
2023-04-02T05:54:55.627Z,94.06
2023-04-02T05:55:55.615Z,93.65
2023-04-02T05:56:55.591Z,93.54
2023-04-02T05:58:10.469Z,94.17
2023-04-02T05:58:56.581Z,93.13
2023-04-02T05:59:55.545Z,93.60
2023-04-02T06:00:55.569Z,94.17
2023-04-02T06:01:55.522Z,93.40
2023-04-02T06:02:55.545Z,93.30
2023-04-02T06:03:55.538Z,93.60
2023-04-02T06:04:55.511Z,92.78
2023-04-02T06:05:55.459Z,92.99
2023-04-02T06:06:55.496Z,93.05
2023-04-02T06:07:55.482Z,92.88
2023-04-02T06:08:55.447Z,93.25
2023-04-02T06:09:55.448Z,93.05
2023-04-02T06:10:55.417Z,92.94
2023-04-02T06:11:55.389Z,92.43
2023-04-02T06:12:55.468Z,92.22
2023-04-02T06:13:55.374Z,91.81
2023-04-02T06:14:55.369Z,92.84
2023-04-02T06:15:55.363Z,92.12
2023-04-02T06:16:55.387Z,92.22
2023-04-02T06:17:55.417Z,92.74
2023-04-02T06:18:55.335Z,92.53
2023-04-02T06:19:55.307Z,92.12
2023-04-02T06:20:55.309Z,92.12
2023-04-02T06:21:55.286Z,91.81
2023-04-02T06:22:55.268Z,92.74
2023-04-02T06:23:55.300Z,92.08
2023-04-02T06:24:55.319Z,92.08
2023-04-02T06:25:55.247Z,92.08
2023-04-02T06:26:55.228Z,91.46
2023-04-02T06:27:55.227Z,92.18
2023-04-02T06:28:55.210Z,92.18
2023-04-02T06:29:55.215Z,92.08
2023-04-02T06:30:55.237Z,92.18
2023-04-02T06:31:55.195Z,92.18
2023-04-02T06:32:55.210Z,92.08
2023-04-02T06:33:55.164Z,92.18
2023-04-02T06:34:55.136Z,91.87
2023-04-02T06:35:55.180Z,91.52
2023-04-02T06:36:55.208Z,91.77
2023-04-02T06:37:55.135Z,91.66
2023-04-02T06:38:55.121Z,91.87
2023-04-02T06:39:55.083Z,91.77
2023-04-02T06:40:55.837Z,91.62
2023-04-02T06:41:55.057Z,91.77
2023-04-02T06:42:55.129Z,92.08
2023-04-02T06:43:55.082Z,91.62
2023-04-02T06:44:55.056Z,91.93
2023-04-02T06:45:55.054Z,91.77
2023-04-02T06:46:55.017Z,91.72
2023-04-02T06:47:55.027Z,90.64
2023-04-02T06:48:55.027Z,91.83
2023-04-02T06:49:55.008Z,91.72
2023-04-02T06:50:54.991Z,91.62
2023-04-02T06:51:54.950Z,92.03
2023-04-02T06:52:54.963Z,91.72
2023-04-02T06:53:54.930Z,91.11
2023-04-02T06:54:54.977Z,90.39
2023-04-02T06:55:54.925Z,90.69
2023-04-02T06:57:02.902Z,91.62
2023-04-02T06:57:54.881Z,91.42
2023-04-02T06:58:54.870Z,91.52
2023-04-02T06:59:54.888Z,90.69
2023-04-02T07:00:54.863Z,90.39
2023-04-02T07:01:54.901Z,90.08
2023-04-02T07:02:54.850Z,90.59
2023-04-02T07:03:54.820Z,90.59
2023-04-02T07:04:54.857Z,90.96
2023-04-02T07:05:54.793Z,91.27
2023-04-02T07:06:54.792Z,90.14
2023-04-02T07:07:54.798Z,90.03
2023-04-02T07:08:54.780Z,89.69
2023-04-02T07:09:54.768Z,89.42
2023-04-02T07:10:54.738Z,89.22
2023-04-02T07:11:54.752Z,90.09
2023-04-02T07:12:54.738Z,89.79
2023-04-02T07:13:54.736Z,90.20
2023-04-02T07:14:54.694Z,88.86
2023-04-02T07:15:54.696Z,88.86
2023-04-02T07:16:54.668Z,89.58
2023-04-02T07:17:54.776Z,90.09
2023-04-02T07:18:54.655Z,89.58
2023-04-02T07:19:54.627Z,89.38
2023-04-02T07:20:54.649Z,89.48
2023-04-02T07:21:54.604Z,89.58
2023-04-02T07:22:54.622Z,89.23
2023-04-02T07:23:54.624Z,89.03
2023-04-02T07:24:54.591Z,89.34
2023-04-02T07:25:54.599Z,88.72
2023-04-02T07:26:54.551Z,88.41
2023-04-02T07:27:54.537Z,89.34
2023-04-02T07:28:54.552Z,88.98
2023-04-02T07:29:54.535Z,89.29
2023-04-02T07:30:54.512Z,87.34
2023-04-02T07:31:54.516Z,86.83
2023-04-02T07:32:54.552Z,87.04
2023-04-02T07:33:54.495Z,87.04
2023-04-02T07:34:54.470Z,87.34
2023-04-02T07:35:54.474Z,87.10
2023-04-02T07:36:54.442Z,86.00
2023-04-02T07:37:54.425Z,86.62
2023-04-02T07:38:54.449Z,86.89
2023-04-02T07:39:54.440Z,87.40
2023-04-02T07:40:54.423Z,86.68
2023-04-02T07:41:54.382Z,87.20
2023-04-02T07:42:54.372Z,86.48
2023-04-02T07:43:54.359Z,87.30
2023-04-02T07:44:54.450Z,86.68
2023-04-02T07:45:54.380Z,86.68
2023-04-02T07:46:54.410Z,86.58
2023-04-02T07:47:54.344Z,86.79
2023-04-02T07:48:54.324Z,86.99
2023-04-02T07:49:54.293Z,86.68
2023-04-02T07:50:54.353Z,86.79
2023-04-02T07:51:54.289Z,86.58
2023-04-02T07:52:54.274Z,85.70
2023-04-02T07:53:54.250Z,86.72
2023-04-02T07:54:54.240Z,86.72
2023-04-02T07:55:54.251Z,86.93
2023-04-02T07:56:54.344Z,87.55
2023-04-02T07:57:54.222Z,86.72
2023-04-02T07:58:54.214Z,86.72
2023-04-02T07:59:54.222Z,87.04
2023-04-02T08:00:54.173Z,86.93
2023-04-02T08:01:54.185Z,86.83
2023-04-02T08:02:54.301Z,86.93
2023-04-02T08:03:54.734Z,87.04
2023-04-02T08:04:54.130Z,86.42
2023-04-02T08:05:54.146Z,86.72
2023-04-02T08:06:54.130Z,86.62
2023-04-02T08:07:54.115Z,86.52
2023-04-02T08:08:54.126Z,86.58
2023-04-02T08:09:54.083Z,86.83
2023-04-02T08:10:54.061Z,86.68
2023-04-02T08:11:54.051Z,86.38
2023-04-02T08:12:54.094Z,86.38
2023-04-02T08:13:54.031Z,86.89
2023-04-02T08:14:54.080Z,86.58
2023-04-02T08:15:54.031Z,85.97
2023-04-02T08:16:54.099Z,86.85
2023-04-02T08:17:54.016Z,86.54
2023-04-02T08:18:53.979Z,87.40
2023-04-02T08:19:55.355Z,86.95
2023-04-02T08:20:53.968Z,86.24
2023-04-02T08:21:54.017Z,86.13
2023-04-02T08:22:53.934Z,86.19
2023-04-02T08:23:53.916Z,86.09
2023-04-02T08:24:53.946Z,86.19
2023-04-02T08:25:53.916Z,85.38
2023-04-02T08:26:53.936Z,86.30
2023-04-02T08:27:53.875Z,85.89
2023-04-02T08:28:53.903Z,84.86
2023-04-02T08:29:53.875Z,84.34
2023-04-02T08:30:53.934Z,84.96
2023-04-02T08:31:53.864Z,86.09
2023-04-02T08:32:54.029Z,84.76
2023-04-02T08:33:53.809Z,86.05
2023-04-02T08:34:53.797Z,86.25
2023-04-02T08:35:53.804Z,86.15
2023-04-02T08:36:53.808Z,84.20
2023-04-02T08:37:53.793Z,84.41
2023-04-02T08:38:53.794Z,84.31
2023-04-02T08:39:53.781Z,84.04
2023-04-02T08:40:53.751Z,84.34
2023-04-02T08:41:53.731Z,84.66
2023-04-02T08:42:53.746Z,85.06
2023-04-02T08:43:53.711Z,86.09
2023-04-02T08:44:53.729Z,84.49
2023-04-02T08:45:53.726Z,84.69
2023-04-02T08:46:53.663Z,85.89
2023-04-02T08:47:53.829Z,85.31
2023-04-02T08:48:53.649Z,86.13
2023-04-02T08:49:53.661Z,85.62
2023-04-02T08:50:53.688Z,86.81
2023-04-02T08:51:53.625Z,85.99
2023-04-02T08:52:53.610Z,85.89
2023-04-02T08:53:53.585Z,86.09
2023-04-02T08:54:53.633Z,86.15
2023-04-02T08:55:53.605Z,86.05
2023-04-02T08:56:53.662Z,85.85
2023-04-02T08:57:53.772Z,85.23
2023-04-02T08:58:53.551Z,84.72
2023-04-02T08:59:53.522Z,84.92
2023-04-02T09:00:53.541Z,86.05
2023-04-02T09:01:53.576Z,85.03
2023-04-02T09:02:53.557Z,84.61
2023-04-02T09:03:53.492Z,84.52
2023-04-02T09:04:53.562Z,85.13
2023-04-02T09:05:53.458Z,84.00
2023-04-02T09:06:53.452Z,84.37
2023-04-02T09:07:53.434Z,83.07
2023-04-02T09:08:53.474Z,83.49
2023-04-02T09:09:53.406Z,83.90
2023-04-02T09:10:53.441Z,83.90
2023-04-02T09:11:53.407Z,84.31
2023-04-02T09:12:53.407Z,83.90
2023-04-02T09:13:53.360Z,84.10
2023-04-02T09:14:53.431Z,83.96
2023-04-02T09:15:53.371Z,83.86
2023-04-02T09:16:53.369Z,84.68
2023-04-02T09:17:54.451Z,84.41
2023-04-02T09:18:53.309Z,84.17
2023-04-02T09:19:53.296Z,84.68
2023-04-02T09:20:53.344Z,83.90
2023-04-02T09:21:53.301Z,84.06
2023-04-02T09:22:53.352Z,84.78
2023-04-02T09:23:53.277Z,84.37
2023-04-02T09:24:53.243Z,83.76
2023-04-02T09:26:03.537Z,84.37
2023-04-02T09:26:54.233Z,83.65
2023-04-02T09:27:53.223Z,83.76
2023-04-02T09:28:53.223Z,84.17
2023-04-02T09:29:53.184Z,84.37
2023-04-02T09:30:53.174Z,83.96
2023-04-02T09:31:53.275Z,84.17
2023-04-02T09:32:53.226Z,83.86
2023-04-02T09:33:53.175Z,83.86
2023-04-02T09:34:53.150Z,84.68
2023-04-02T09:35:53.140Z,84.17
2023-04-02T09:36:53.117Z,84.68
2023-04-02T09:37:53.097Z,85.66
2023-04-02T09:38:53.133Z,86.07
2023-04-02T09:39:53.083Z,87.30
2023-04-02T09:40:53.075Z,87.14
2023-04-02T09:42:04.954Z,88.02
2023-04-02T09:42:54.049Z,88.64
2023-04-02T09:43:53.031Z,88.17
2023-04-02T09:44:53.105Z,87.24
2023-04-02T09:45:53.020Z,88.06
2023-04-02T09:46:53.069Z,88.57
2023-04-02T09:47:53.036Z,89.39
2023-04-02T09:48:53.022Z,89.90
2023-04-02T09:49:52.968Z,91.24
2023-04-02T09:50:52.975Z,91.09
2023-04-02T09:51:52.975Z,87.96
2023-04-02T09:52:52.932Z,88.88
2023-04-02T09:53:52.941Z,88.78
2023-04-02T09:54:52.936Z,89.29
2023-04-02T09:55:52.914Z,88.37
2023-04-02T09:56:52.963Z,88.17
2023-04-02T09:57:52.885Z,87.28
2023-04-02T09:58:52.865Z,88.98
2023-04-02T09:59:52.856Z,88.98
2023-04-02T10:00:52.936Z,89.39
2023-04-02T10:01:52.856Z,88.57
2023-04-02T10:02:52.955Z,88.37
2023-04-02T10:03:52.854Z,88.62
2023-04-02T10:04:52.820Z,88.10
2023-04-02T10:05:52.786Z,88.21
2023-04-02T10:06:52.778Z,87.34
2023-04-02T10:07:52.763Z,87.85
2023-04-02T10:08:52.825Z,88.27
2023-04-02T10:09:52.752Z,88.98
2023-04-02T10:10:52.728Z,88.78
2023-04-02T10:11:52.731Z,89.03
2023-04-02T10:12:52.711Z,89.60
2023-04-02T10:13:52.703Z,89.50
2023-04-02T10:14:52.730Z,90.93
2023-04-02T10:15:52.685Z,90.93
2023-04-02T10:16:52.684Z,91.14
2023-04-02T10:17:52.745Z,91.14
2023-04-02T10:18:52.673Z,91.75
2023-04-02T10:19:52.684Z,91.82
2023-04-02T10:20:52.653Z,91.61
2023-04-02T10:21:52.607Z,92.02
2023-04-02T10:22:52.596Z,91.50
2023-04-02T10:23:52.585Z,91.50
2023-04-02T10:24:52.627Z,89.87
2023-04-02T10:25:52.578Z,89.97
2023-04-02T10:26:52.595Z,89.87
2023-04-02T10:27:52.544Z,89.36
2023-04-02T10:28:52.531Z,90.89
2023-04-02T10:29:52.542Z,90.95
2023-04-02T10:30:52.602Z,90.13
2023-04-02T10:31:52.509Z,89.92
2023-04-02T10:32:52.630Z,89.58
2023-04-02T10:33:52.489Z,88.86
2023-04-02T10:34:52.468Z,88.04
2023-04-02T10:35:52.515Z,86.51
2023-04-02T10:36:52.471Z,87.43
2023-04-02T10:37:52.460Z,88.08
2023-04-02T10:38:52.421Z,88.70
2023-04-02T10:39:52.440Z,90.34
2023-04-02T10:40:52.401Z,89.11
2023-04-02T10:41:52.392Z,88.90
2023-04-02T10:42:52.426Z,88.80
2023-04-02T10:43:52.389Z,89.62
2023-04-02T10:44:52.358Z,89.11
2023-04-02T10:45:52.391Z,88.84
2023-04-02T10:46:52.360Z,89.87
2023-04-02T10:47:52.501Z,91.61
2023-04-02T10:48:52.322Z,91.50
2023-04-02T10:49:52.375Z,92.78
2023-04-02T10:50:52.286Z,93.49
2023-04-02T10:51:52.302Z,94.01
2023-04-02T10:52:52.300Z,95.50
2023-04-02T10:53:52.290Z,94.21
2023-04-02T10:54:52.273Z,95.34
2023-04-02T10:55:52.233Z,95.34
2023-04-02T10:56:52.219Z,93.39
2023-04-02T10:57:52.218Z,94.73
2023-04-02T10:58:52.282Z,95.07
2023-04-02T10:59:52.204Z,95.75
2023-04-02T11:00:52.190Z,94.36
2023-04-02T11:01:52.299Z,95.69
2023-04-02T11:02:52.251Z,96.04
2023-04-02T11:03:52.238Z,95.32
2023-04-02T11:04:52.255Z,96.35
2023-04-02T11:05:52.164Z,97.07
2023-04-02T11:06:58.016Z,97.48
2023-04-02T11:07:53.127Z,97.13
2023-04-02T11:08:52.121Z,98.05
2023-04-02T11:09:52.103Z,97.13
2023-04-02T11:10:52.392Z,97.33
2023-04-02T11:11:52.073Z,97.03
2023-04-02T11:12:52.043Z,96.41
2023-04-02T11:13:52.029Z,96.51
2023-04-02T11:14:52.024Z,96.00
2023-04-02T11:15:52.085Z,96.82
2023-04-02T11:16:52.045Z,97.23
2023-04-02T11:17:52.053Z,95.90
2023-04-02T11:18:51.975Z,95.79
2023-04-02T11:19:51.967Z,95.39
2023-04-02T11:20:51.956Z,96.45
2023-04-02T11:21:58.792Z,96.00
2023-04-02T11:22:52.962Z,96.25
2023-04-02T11:23:51.919Z,98.57
2023-04-02T11:24:51.958Z,96.82
2023-04-02T11:25:51.897Z,98.46
2023-04-02T11:26:51.909Z,97.13
2023-04-02T11:27:51.884Z,97.03
2023-04-02T11:28:51.902Z,97.23
2023-04-02T11:29:51.885Z,96.00
2023-04-02T11:30:51.839Z,95.90
2023-04-02T11:31:51.937Z,96.45
2023-04-02T11:32:51.906Z,96.31
2023-04-02T11:33:51.822Z,97.69
2023-04-02T11:35:03.400Z,98.36
2023-04-02T11:35:52.837Z,98.67
2023-04-02T11:36:51.774Z,98.46
2023-04-02T11:37:51.777Z,98.46
2023-04-02T11:38:52.517Z,98.16
2023-04-02T11:39:51.756Z,98.67
2023-04-02T11:40:51.759Z,99.38
2023-04-02T11:41:51.720Z,99.99
2023-04-02T11:42:51.748Z,99.99
2023-04-02T11:43:51.719Z,98.97
2023-04-02T11:44:51.704Z,98.05
2023-04-02T11:45:53.335Z,98.67
2023-04-02T11:46:51.850Z,97.74
2023-04-02T11:47:51.678Z,97.69
2023-04-02T11:48:51.690Z,98.20
2023-04-02T11:49:51.633Z,97.28
2023-04-02T11:50:51.635Z,99.22
2023-04-02T11:51:59.213Z,99.84
2023-04-02T11:52:52.635Z,99.99
2023-04-02T11:53:51.652Z,99.99
2023-04-02T11:54:51.596Z,98.55
2023-04-02T11:55:51.601Z,98.35
2023-04-02T11:56:51.580Z,99.12
2023-04-02T11:57:51.551Z,99.38
2023-04-02T11:58:51.549Z,99.17
2023-04-02T11:59:51.519Z,99.79
2023-04-02T12:00:51.528Z,99.99
2023-04-02T12:01:51.544Z,99.99
2023-04-02T12:02:51.542Z,99.99
2023-04-02T12:03:51.481Z,99.99
2023-04-02T12:04:51.509Z,99.99
2023-04-02T12:05:51.457Z,99.99
2023-04-02T12:06:51.473Z,99.99
2023-04-02T12:07:51.441Z,99.99
2023-04-02T12:08:57.606Z,99.99
2023-04-02T12:09:52.420Z,99.99
2023-04-02T12:10:51.428Z,99.99
2023-04-02T12:11:52.175Z,99.99
2023-04-02T12:12:51.428Z,99.99
2023-04-02T12:13:51.373Z,99.99
2023-04-02T12:14:51.347Z,99.99
2023-04-02T12:15:51.337Z,99.99
2023-04-02T12:16:51.368Z,99.99
2023-04-02T12:17:51.484Z,99.99
2023-04-02T12:18:51.319Z,99.99
2023-04-02T12:19:51.321Z,99.99
2023-04-02T12:20:51.278Z,99.99
2023-04-02T12:21:51.270Z,99.99
2023-04-02T12:22:51.292Z,99.99
2023-04-02T12:23:51.246Z,99.99
2023-04-02T12:24:51.238Z,99.99
2023-04-02T12:25:51.256Z,99.99
2023-04-02T12:26:51.211Z,99.99
2023-04-02T12:27:51.199Z,99.24
2023-04-02T12:28:51.235Z,99.49
2023-04-02T12:29:51.182Z,98.93
2023-04-02T12:30:51.221Z,99.34
2023-04-02T12:31:51.162Z,98.42
2023-04-02T12:32:51.160Z,98.16
2023-04-02T12:33:51.156Z,97.70
2023-04-02T12:34:51.134Z,94.62
2023-04-02T12:35:51.251Z,95.03
2023-04-02T12:36:51.114Z,96.37
2023-04-02T12:37:51.088Z,97.04
2023-04-02T12:38:51.076Z,97.45
2023-04-02T12:39:51.065Z,98.37
2023-04-02T12:40:51.111Z,97.30
2023-04-02T12:41:51.064Z,97.09
2023-04-02T12:42:51.031Z,96.69
2023-04-02T12:43:51.022Z,96.53
2023-04-02T12:44:51.049Z,95.70
2023-04-02T12:45:51.034Z,95.50
2023-04-02T12:46:51.046Z,94.78
2023-04-02T12:47:51.015Z,95.29
2023-04-02T12:48:50.962Z,96.94
2023-04-02T12:49:50.957Z,97.14
2023-04-02T12:50:50.955Z,96.53
2023-04-02T12:51:50.958Z,96.73
2023-04-02T12:52:50.969Z,98.37